Time;durP1;ratioP1;P1;durP2;ratioP2;P2;SDS_P1;SDS_P2;PMS_P1;PMS_P2;Temp;Humidity;BMP_temperature;BMP_pressure;BME280_temperature;BME280_humidity;BME280_pressure;Samples;Min_cycle;Max_cycle;Signal;HPM_P1;HPM_P2
2023/07/19 00:01:04;;;;;;;6.40;5.35;;;;;;;-144.30;39.23;83273.97;5033134;28;20680;-52
2023/07/19 00:03:31;;;;;;;6.35;5.68;;;;;;;-144.30;39.41;83295.81;5032995;28;20328;-49
2023/07/19 00:05:58;;;;;;;5.90;5.38;;;;;;;-144.30;39.30;83277.94;5033332;28;20669;-50
2023/07/19 00:08:25;;;;;;;8.07;5.10;;;;;;;-144.30;39.45;83281.91;5033387;28;20237;-48
2023/07/19 00:10:53;;;;;;;6.32;5.45;;;;;;;-144.30;39.40;83283.91;5033005;28;20211;-51
2023/07/19 00:13:20;;;;;;;9.15;5.28;;;;;;;-144.30;39.61;83268.00;5033011;28;20209;-49
2023/07/19 00:15:47;;;;;;;5.82;5.38;;;;;;;-144.30;39.65;83198.47;5032898;28;20227;-49
2023/07/19 00:18:14;;;;;;;7.22;6.10;;;;;;;-144.30;39.58;83277.94;5032832;28;20206;-49
2023/07/19 00:20:41;;;;;;;6.63;5.60;;;;;;;-144.30;39.30;83301.78;5032773;28;20312;-49
2023/07/19 00:23:08;;;;;;;5.90;5.40;;;;;;;-144.30;39.04;83297.81;5032802;28;20201;-50
2023/07/19 00:25:35;;;;;;;7.28;5.30;;;;;;;-144.30;39.19;83258.06;5032785;28;20190;-51
2023/07/19 00:28:03;;;;;;;5.80;5.25;;;;;;;-144.30;38.99;83262.03;5032411;28;20205;-51
2023/07/19 00:30:30;;;;;;;6.65;6.15;;;;;;;-144.30;39.33;83309.72;5033093;28;20201;-51
2023/07/19 00:32:57;;;;;;;5.18;4.88;;;;;;;-144.30;39.12;83242.19;5032705;28;20197;-50
2023/07/19 00:35:24;;;;;;;6.07;5.57;;;;;;;-144.30;39.44;83291.84;5032673;28;20289;-48
2023/07/19 00:37:50;;;;;;;5.50;5.00;;;;;;;-144.30;39.24;83311.72;5032610;28;20212;-48
2023/07/19 00:40:17;;;;;;;5.68;5.28;;;;;;;-144.30;39.32;83279.94;5032311;28;20753;-51
2023/07/19 00:42:44;;;;;;;5.80;5.25;;;;;;;-144.30;39.41;83289.84;5032236;28;20202;-48
2023/07/19 00:45:13;;;;;;;6.30;5.78;;;;;;;-144.30;39.80;83297.81;5032689;28;20393;-49
2023/07/19 00:47:40;;;;;;;5.75;5.25;;;;;;;-144.30;39.74;83305.75;5032484;28;20212;-52
2023/07/19 00:50:09;;;;;;;5.93;5.47;;;;;;;-144.30;39.94;83323.63;5032232;28;20197;-51
2023/07/19 00:52:36;;;;;;;6.72;5.60;;;;;;;-144.30;40.03;83325.63;5032335;28;20579;-48
2023/07/19 00:55:03;;;;;;;10.52;5.25;;;;;;;-144.30;40.11;83347.47;5032035;28;20204;-49
2023/07/19 00:57:30;;;;;;;5.80;5.05;;;;;;;-144.30;40.46;83361.38;5032480;28;20247;-51
2023/07/19 00:59:57;;;;;;;7.50;5.15;;;;;;;-144.30;40.57;83337.53;5032153;28;20663;-51
2023/07/19 01:02:27;;;;;;;6.40;5.50;;;;;;;-144.30;40.93;83355.41;5031975;28;20197;-49
2023/07/19 01:04:54;;;;;;;6.25;5.50;;;;;;;-144.30;40.70;83375.28;5032018;28;20203;-49
2023/07/19 01:07:21;;;;;;;6.35;6.00;;;;;;;-144.30;40.74;83361.38;5031217;28;20193;-51
2023/07/19 01:09:48;;;;;;;6.65;5.38;;;;;;;-144.30;40.72;83347.47;5031740;28;20208;-48
2023/07/19 01:12:15;;;;;;;5.95;5.43;;;;;;;-144.30;40.56;83389.19;5031891;28;20228;-49
2023/07/19 01:14:42;;;;;;;6.07;5.47;;;;;;;-144.30;40.77;83357.41;5031863;28;20388;-49
2023/07/19 01:17:09;;;;;;;5.70;5.38;;;;;;;-144.30;40.65;83325.63;5031588;28;20225;-51
2023/07/19 01:19:38;;;;;;;7.00;5.35;;;;;;;-144.30;40.93;83361.38;5031724;28;20251;-51
2023/07/19 01:22:07;;;;;;;5.70;5.25;;;;;;;-144.30;40.85;83401.13;5031362;28;20570;-48
2023/07/19 01:24:35;;;;;;;5.88;5.30;;;;;;;-144.30;41.04;83393.16;5032080;28;20575;-54
2023/07/19 01:27:03;;;;;;;5.68;5.18;;;;;;;-144.30;41.16;83367.34;5031861;28;20197;-51
2023/07/19 01:29:30;;;;;;;5.88;5.03;;;;;;;-144.30;41.03;83361.38;5030912;28;20233;-51
2023/07/19 01:31:57;;;;;;;6.40;5.90;;;;;;;-144.30;41.40;83415.03;5030777;28;20197;-51
2023/07/19 01:34:23;;;;;;;6.13;5.40;;;;;;;-144.30;41.47;83397.16;5031039;28;20284;-51
2023/07/19 01:36:50;;;;;;;5.82;5.32;;;;;;;-144.30;41.54;83420.97;5030851;28;20226;-51
2023/07/19 01:39:17;;;;;;;6.13;5.72;;;;;;;-144.30;41.76;83397.16;5031413;28;20197;-51
2023/07/19 01:41:45;;;;;;;6.57;5.35;;;;;;;-144.30;41.54;83407.06;5031496;28;20224;-52
2023/07/19 01:44:12;;;;;;;6.00;5.40;;;;;;;-144.30;41.82;83436.88;5031010;28;20216;-51
2023/07/19 01:46:39;;;;;;;5.72;5.32;;;;;;;-144.30;41.79;83389.19;5031108;28;20193;-51
2023/07/19 01:49:06;;;;;;;5.82;5.32;;;;;;;-144.30;41.35;83419.00;5031139;28;20233;-51
2023/07/19 01:51:33;;;;;;;7.50;5.53;;;;;;;-144.30;41.33;83432.91;5031061;28;20208;-51
2023/07/19 01:54:00;;;;;;;6.13;5.57;;;;;;;-144.30;41.37;83397.16;5030962;28;20198;-51
2023/07/19 01:56:27;;;;;;;6.10;5.50;;;;;;;-144.30;41.36;83401.13;5030449;28;20220;-48
2023/07/19 01:58:55;;;;;;;5.60;5.30;;;;;;;-144.30;41.43;83426.94;5030578;28;20193;-49
2023/07/19 02:01:22;;;;;;;5.53;5.03;;;;;;;-144.30;41.40;83422.97;5030446;28;20595;-48
2023/07/19 02:03:49;;;;;;;5.93;5.40;;;;;;;-144.30;41.72;83452.78;5030123;28;20229;-48
2023/07/19 02:06:16;;;;;;;8.98;5.50;;;;;;;-144.30;41.72;83448.81;5030576;28;20200;-48
2023/07/19 02:08:42;;;;;;;6.40;5.60;;;;;;;-144.30;41.70;83466.69;5031131;28;20200;-53
2023/07/19 02:11:09;;;;;;;6.20;5.80;;;;;;;-144.30;41.79;83438.88;5030736;28;20201;-52
2023/07/19 02:13:36;;;;;;;5.88;5.30;;;;;;;-144.30;42.17;83460.72;5031142;28;20541;-51
2023/07/19 02:16:05;;;;;;;5.97;5.57;;;;;;;-144.30;41.74;83470.66;5030656;28;20244;-52
2023/07/19 02:18:32;;;;;;;9.07;6.35;;;;;;;-144.30;41.96;83492.50;5030635;28;20580;-52
2023/07/19 02:20:59;;;;;;;6.13;5.63;;;;;;;-144.30;42.20;83500.47;5030717;28;20213;-52
2023/07/19 02:23:26;;;;;;;6.07;5.68;;;;;;;-144.30;42.17;83468.66;5030889;28;20590;-53
2023/07/19 02:25:53;;;;;;;6.10;5.60;;;;;;;-144.30;42.26;83520.31;5030750;28;20576;-52
2023/07/19 02:28:20;;;;;;;5.82;5.32;;;;;;;-144.30;42.58;83472.66;5030870;28;20665;-51
2023/07/19 02:30:48;;;;;;;7.35;5.90;;;;;;;-144.30;42.62;83476.63;5030825;28;20769;-53
2023/07/19 02:33:16;;;;;;;7.22;5.43;;;;;;;-144.30;42.92;83472.66;5030390;28;20193;-52
2023/07/19 02:35:43;;;;;;;6.63;6.13;;;;;;;-144.30;42.80;83494.50;5030909;28;20598;-51
2023/07/19 02:38:11;;;;;;;8.70;6.15;;;;;;;-144.30;42.88;83508.41;5030525;28;20223;-49
2023/07/19 02:40:38;;;;;;;6.32;5.63;;;;;;;-144.30;42.79;83532.25;5030599;28;20197;-50
2023/07/19 02:43:05;;;;;;;7.40;5.75;;;;;;;-144.30;43.00;83534.22;5030485;28;20290;-49
2023/07/19 02:45:35;;;;;;;6.97;6.25;;;;;;;-144.30;42.93;83492.50;5030446;28;20208;-50
2023/07/19 02:48:02;;;;;;;9.75;5.95;;;;;;;-144.30;43.05;83514.38;5030775;28;20735;-47
2023/07/19 02:50:31;;;;;;;7.03;5.90;;;;;;;-144.30;43.05;83516.34;5030619;28;20295;-49
2023/07/19 02:52:58;;;;;;;8.25;5.85;;;;;;;-144.30;42.97;83510.41;5030660;28;20209;-52
2023/07/19 02:55:25;;;;;;;8.40;6.38;;;;;;;-144.30;42.77;83508.41;5030454;28;20197;-49
2023/07/19 02:57:51;;;;;;;6.03;5.53;;;;;;;-144.30;43.17;83552.13;5029943;28;20229;-52
2023/07/19 03:00:18;;;;;;;7.25;6.55;;;;;;;-144.30;42.97;83524.31;5030172;28;20315;-52
2023/07/19 03:02:46;;;;;;;6.63;5.90;;;;;;;-144.30;43.02;83534.22;5030228;28;20231;-52
2023/07/19 03:05:15;;;;;;;7.38;6.10;;;;;;;-144.30;43.12;83518.34;5030284;28;20209;-50
2023/07/19 03:07:44;;;;;;;7.88;6.00;;;;;;;-144.30;43.05;83544.16;5030325;28;20193;-49
2023/07/19 03:10:11;;;;;;;8.10;6.45;;;;;;;-144.30;43.23;83552.13;5030466;28;20201;-52
2023/07/19 03:12:38;;;;;;;6.28;5.78;;;;;;;-144.30;43.31;83490.53;5030290;28;20252;-51
2023/07/19 03:15:06;;;;;;;6.80;6.20;;;;;;;-144.30;43.18;83518.34;5030308;28;20189;-51
2023/07/19 03:17:33;;;;;;;6.72;6.20;;;;;;;-144.30;42.96;83522.31;5030348;28;20233;-52
2023/07/19 03:20:00;;;;;;;7.13;6.43;;;;;;;-144.30;42.92;83508.41;5030483;28;20201;-51
2023/07/19 03:22:27;;;;;;;6.55;6.05;;;;;;;-144.30;42.99;83516.34;5030170;28;20201;-52
2023/07/19 03:24:55;;;;;;;6.70;6.15;;;;;;;-144.30;42.89;83482.56;5025732;28;20205;-51
2023/07/19 03:27:22;;;;;;;6.57;6.05;;;;;;;-144.30;42.91;83522.31;5026140;28;20205;-52
2023/07/19 03:29:49;;;;;;;7.63;6.18;;;;;;;-144.30;42.54;83498.47;5026141;28;20589;-52
2023/07/19 03:32:16;;;;;;;7.00;6.30;;;;;;;-144.30;42.46;83488.53;5027885;28;20197;-52
2023/07/19 03:34:43;;;;;;;6.47;6.00;;;;;;;-144.30;42.38;83504.44;5022840;28;20199;-52
2023/07/19 03:37:10;;;;;;;8.35;6.65;;;;;;;-144.30;42.33;83462.72;5024637;28;20227;-52
2023/07/19 03:39:37;;;;;;;7.97;6.38;;;;;;;-144.30;42.66;83494.50;5025471;28;20204;-50
2023/07/19 03:42:07;;;;;;;7.60;6.60;;;;;;;-144.30;42.61;83460.72;5028359;28;20205;-47
2023/07/19 03:44:34;;;;;;;6.93;6.47;;;;;;;-144.30;42.46;83460.72;5033156;28;20288;-51
2023/07/19 03:47:00;;;;;;;10.15;6.57;;;;;;;-144.30;42.62;83436.88;5032905;28;20202;-48
2023/07/19 03:49:27;;;;;;;6.82;6.15;;;;;;;-144.30;42.33;83434.91;5032620;28;20204;-51
2023/07/19 03:51:54;;;;;;;8.13;6.18;;;;;;;-144.30;42.27;83405.09;5032915;28;20198;-51
2023/07/19 03:54:21;;;;;;;11.20;6.60;;;;;;;-144.30;42.08;83393.16;5032510;28;20232;-50
2023/07/19 03:56:48;;;;;;;10.05;6.82;;;;;;;-144.30;41.95;83369.34;5032815;28;20606;-52
2023/07/19 03:59:17;;;;;;;11.40;6.30;;;;;;;-144.30;40.94;83216.34;5032859;28;20205;-53
2023/07/19 04:01:44;;;;;;;15.23;7.40;;;;;;;-144.30;38.83;82977.97;5032599;28;20255;-52
2023/07/19 04:04:11;;;;;;;9.60;6.47;;;;;;;-144.30;36.90;82703.81;5031697;28;20232;-48
2023/07/19 04:06:38;;;;;;;7.13;6.47;;;;;;;-144.30;35.05;82388.00;5016170;28;20206;-51
2023/07/19 04:09:04;;;;;;;7.78;6.65;;;;;;;-144.30;33.71;82137.75;5012435;28;20705;-49
2023/07/19 04:11:31;;;;;;;9.80;6.13;;;;;;;-144.30;32.29;81829.94;5019865;28;20284;-50
2023/07/19 04:13:58;;;;;;;9.93;7.10;;;;;;;-144.30;31.38;81557.88;5031722;28;20194;-49
2023/07/19 04:16:27;;;;;;;7.72;6.15;;;;;;;-144.30;30.43;81351.34;5032497;28;20197;-51
2023/07/19 04:18:53;;;;;;;6.47;5.95;;;;;;;-144.30;29.45;81065.44;5032158;28;20217;-51
2023/07/19 04:21:21;;;;;;;8.93;6.63;;;;;;;-144.30;29.14;80795.44;5031220;28;20208;-52
2023/07/19 04:23:47;;;;;;;10.88;5.72;;;;;;;-144.30;28.19;80658.44;5032168;28;20196;-52
2023/07/19 04:26:14;;;;;;;6.03;5.63;;;;;;;-144.30;27.59;80382.53;5032261;28;20203;-52
2023/07/19 04:28:41;;;;;;;10.27;5.43;;;;;;;-144.30;26.83;80136.38;5032238;28;20193;-51
2023/07/19 04:31:08;;;;;;;9.02;5.28;;;;;;;-144.30;26.81;80074.84;5031968;28;20201;-51
2023/07/19 04:33:36;;;;;;;10.82;5.88;;;;;;;-144.30;26.53;79870.41;5033165;28;20207;-51
2023/07/19 04:36:12;;;;;;;7.55;6.07;;;;;;;-144.30;26.26;79806.91;5031701;28;20640;-51
2023/07/19 04:38:38;;;;;;;6.25;5.65;;;;;;;-144.30;26.14;79751.34;5032178;28;20615;-51
2023/07/19 04:41:06;;;;;;;8.07;5.78;;;;;;;-144.30;25.65;79673.94;5030919;28;20283;-52
2023/07/19 04:43:32;;;;;;;8.52;6.00;;;;;;;-144.30;25.85;79538.97;5031824;28;20227;-49
2023/07/19 04:46:00;;;;;;;10.82;6.00;;;;;;;-144.30;25.32;79177.81;5031756;28;20583;-52
2023/07/19 04:48:27;;;;;;;10.30;6.05;;;;;;;-144.30;24.96;78892.06;5031651;28;20200;-52
2023/07/19 04:50:55;;;;;;;5.95;5.43;;;;;;;-144.30;24.84;78675.81;5031678;28;20228;-52
2023/07/19 04:53:22;;;;;;;8.68;5.72;;;;;;;-144.30;24.52;78485.34;5031610;28;20196;-50
2023/07/19 04:55:51;;;;;;;9.85;6.70;;;;;;;-144.30;24.13;78411.94;5031824;28;20219;-52
2023/07/19 04:58:18;;;;;;;10.60;9.48;;;;;;;-144.30;24.14;78404.00;5031463;28;20220;-50
2023/07/19 05:00:45;;;;;;;10.25;8.82;;;;;;;-144.30;23.86;78148.09;5031773;28;20664;-51
2023/07/19 05:03:12;;;;;;;11.57;7.20;;;;;;;-144.30;23.50;77818.78;5031299;28;20237;-50
2023/07/19 05:05:39;;;;;;;16.17;14.75;;;;;;;-144.30;23.34;77602.59;5031362;28;20215;-49
2023/07/19 05:08:08;;;;;;;17.15;9.48;;;;;;;-144.30;23.19;77211.88;5031349;28;20200;-52
2023/07/19 05:10:36;;;;;;;13.65;7.53;;;;;;;-144.30;22.93;76771.63;5031076;28;20227;-52
2023/07/19 05:13:04;;;;;;;27.60;10.40;;;;;;;-144.30;22.90;76753.78;5031347;28;20648;-50
2023/07/19 05:15:31;;;;;;;19.67;14.68;;;;;;;-144.30;22.68;76591.19;5031040;28;20207;-52
2023/07/19 05:17:59;;;;;;;12.93;7.55;;;;;;;-144.30;22.97;76624.91;5031287;28;20723;-49
2023/07/19 05:20:26;;;;;;;12.20;10.43;;;;;;;-144.30;22.64;76337.38;5031089;28;20193;-52
2023/07/19 05:22:53;;;;;;;10.60;8.63;;;;;;;-144.30;22.39;76269.97;5030712;28;20204;-52
2023/07/19 05:25:21;;;;;;;14.88;5.65;;;;;;;-144.30;22.43;76468.25;5031085;28;20201;-52
2023/07/19 05:27:49;;;;;;;7.15;5.32;;;;;;;-144.30;22.43;76503.94;5030597;28;20201;-52
2023/07/19 05:30:16;;;;;;;11.27;7.32;;;;;;;-144.30;22.47;76377.03;5025823;28;20795;-50
2023/07/19 05:32:43;;;;;;;12.52;7.25;;;;;;;-144.30;22.83;76890.59;5025807;28;20201;-51
2023/07/19 05:35:09;;;;;;;12.60;11.50;;;;;;;-144.30;22.63;76656.63;5029000;28;20205;-51
2023/07/19 05:37:36;;;;;;;20.85;10.52;;;;;;;-144.30;22.73;76720.06;5028892;28;20208;-49
2023/07/19 05:40:04;;;;;;;30.80;7.82;;;;;;;-144.30;22.60;76593.16;5029653;28;20204;-51
2023/07/19 05:42:32;;;;;;;24.83;10.35;;;;;;;-144.30;22.87;76271.97;5030441;28;20204;-52
2023/07/19 05:44:59;;;;;;;11.02;8.63;;;;;;;-144.30;22.63;76113.34;5029989;28;20555;-52
2023/07/19 05:47:26;;;;;;;8.38;7.55;;;;;;;-144.30;22.70;76815.25;5030639;28;20189;-52
2023/07/19 05:49:53;;;;;;;7.38;6.68;;;;;;;-144.30;22.93;76950.09;5030533;28;20204;-50
2023/07/19 05:52:20;;;;;;;12.70;10.60;;;;;;;-144.30;22.75;76795.44;5029847;28;20668;-51
2023/07/19 05:54:47;;;;;;;14.57;8.45;;;;;;;-144.30;22.95;76866.81;5030454;28;20207;-52
2023/07/19 05:57:14;;;;;;;10.43;9.43;;;;;;;-144.30;23.02;76862.84;5030304;28;20197;-51
2023/07/19 05:59:42;;;;;;;12.48;10.70;;;;;;;-144.30;22.94;77180.16;5030352;28;20256;-51
2023/07/19 06:02:09;;;;;;;7.22;6.63;;;;;;;-144.30;22.65;77118.66;5030247;28;20197;-50
2023/07/19 06:04:36;;;;;;;7.88;5.55;;;;;;;-144.30;22.60;77243.59;5030301;28;20215;-52
2023/07/19 06:07:03;;;;;;;9.82;8.98;;;;;;;-144.30;22.60;77061.16;5030095;28;20200;-50
2023/07/19 06:09:30;;;;;;;9.57;4.93;;;;;;;-144.30;22.58;77059.16;5030197;28;20197;-50
2023/07/19 06:11:57;;;;;;;18.73;13.90;;;;;;;-144.30;23.06;77584.75;5030015;28;20192;-49
2023/07/19 06:14:24;;;;;;;7.65;6.93;;;;;;;-144.30;23.05;77894.16;5030054;28;20296;-49
2023/07/19 06:16:53;;;;;;;11.30;10.02;;;;;;;-144.30;23.32;77884.25;5030372;28;20201;-49
2023/07/19 06:19:20;;;;;;;6.20;5.80;;;;;;;-144.30;23.13;77580.78;5030113;28;20311;-48
2023/07/19 06:21:47;;;;;;;8.65;7.72;;;;;;;-144.30;22.92;77570.84;5030029;28;20192;-48
2023/07/19 06:24:14;;;;;;;6.40;5.90;;;;;;;-144.30;23.36;77973.50;5030035;28;20203;-50
2023/07/19 06:26:40;;;;;;;8.02;7.07;;;;;;;-144.30;23.36;77923.94;5029843;28;20577;-51
2023/07/19 06:29:07;;;;;;;5.60;5.28;;;;;;;-144.30;23.27;78021.13;5029907;28;20199;-50
2023/07/19 06:31:34;;;;;;;5.18;4.97;;;;;;;-144.30;23.74;78560.72;5029943;28;20203;-51
2023/07/19 06:34:03;;;;;;;8.43;5.18;;;;;;;-144.30;24.06;78753.19;5030051;28;20237;-51
2023/07/19 06:36:30;;;;;;;8.05;6.95;;;;;;;-144.30;23.76;78598.44;5029843;28;20193;-50
2023/07/19 06:38:57;;;;;;;13.93;8.07;;;;;;;-144.30;23.89;78485.34;5029750;28;20232;-52
2023/07/19 06:41:24;;;;;;;6.80;6.32;;;;;;;-144.30;23.79;78515.09;5029937;28;20200;-52
2023/07/19 06:43:51;;;;;;;5.47;4.97;;;;;;;-144.30;23.54;78528.97;5029913;28;20602;-52
2023/07/19 06:46:18;;;;;;;7.63;6.43;;;;;;;-144.30;23.72;78608.34;5029681;28;20232;-49
2023/07/19 06:48:44;;;;;;;5.90;5.30;;;;;;;-144.30;23.96;78989.31;5029743;28;20235;-50
2023/07/19 06:51:13;;;;;;;6.97;5.90;;;;;;;-144.30;23.99;78838.50;5028488;28;20196;-49
2023/07/19 06:53:40;;;;;;;5.63;5.20;;;;;;;-144.30;24.18;78898.03;5023013;28;20208;-52
2023/07/19 06:56:07;;;;;;;7.25;5.20;;;;;;;-144.30;24.07;78931.75;5018882;28;20197;-51
2023/07/19 06:58:34;;;;;;;21.73;6.25;;;;;;;-144.30;24.24;79152.00;5019348;28;20600;-51
2023/07/19 07:01:01;;;;;;;5.25;4.85;;;;;;;-144.30;24.40;79263.13;5018331;28;20284;-52
2023/07/19 07:03:29;;;;;;;6.72;4.72;;;;;;;-144.30;24.39;79324.66;5018127;28;20221;-50
2023/07/19 07:05:55;;;;;;;5.95;5.38;;;;;;;-144.30;24.81;79445.69;5022855;28;20201;-50
2023/07/19 07:08:24;;;;;;;9.32;6.22;;;;;;;-144.30;25.17;79594.53;5023785;28;20208;-50
2023/07/19 07:10:51;;;;;;;9.40;5.80;;;;;;;-144.30;25.25;79902.16;5022635;28;20204;-52
2023/07/19 07:13:17;;;;;;;6.88;5.25;;;;;;;-144.30;25.78;80074.84;5022606;28;20200;-48
2023/07/19 07:15:44;;;;;;;8.15;5.38;;;;;;;-144.30;26.02;80039.13;5023964;28;20193;-49
2023/07/19 07:18:11;;;;;;;6.70;5.15;;;;;;;-144.30;25.50;80064.94;5022347;28;20704;-49
2023/07/19 07:20:38;;;;;;;5.60;5.25;;;;;;;-144.30;25.24;79953.78;5022287;28;20193;-49
2023/07/19 07:23:05;;;;;;;5.40;4.93;;;;;;;-144.30;25.22;79850.56;5032936;28;20211;-51
2023/07/19 07:25:34;;;;;;;5.32;5.03;;;;;;;-144.30;25.31;79711.63;5033436;28;20279;-51
2023/07/19 07:28:01;;;;;;;6.20;5.70;;;;;;;-144.30;25.08;79513.19;5033055;28;20197;-49
2023/07/19 07:30:28;;;;;;;6.57;5.70;;;;;;;-144.30;24.74;79618.38;5033188;28;20292;-49
2023/07/19 07:32:54;;;;;;;6.78;5.68;;;;;;;-144.30;25.01;79640.19;5033229;28;20199;-49
2023/07/19 07:35:21;;;;;;;10.95;5.47;;;;;;;-144.30;25.08;79664.00;5032803;28;20196;-49
2023/07/19 07:37:49;;;;;;;5.97;5.45;;;;;;;-144.30;24.64;79802.94;5029303;28;20589;-49
2023/07/19 07:40:16;;;;;;;5.25;4.90;;;;;;;-144.30;24.77;79664.00;5032748;28;20204;-50
2023/07/19 07:42:44;;;;;;;10.38;5.28;;;;;;;-144.30;24.79;79548.91;5032808;28;20208;-49
2023/07/19 07:45:11;;;;;;;7.65;5.80;;;;;;;-144.30;24.62;79598.50;5032745;28;20692;-52
2023/07/19 07:47:38;;;;;;;6.13;5.40;;;;;;;-144.30;24.25;79221.47;5032543;28;20283;-52
2023/07/19 07:50:08;;;;;;;5.38;4.85;;;;;;;-144.30;24.24;79497.31;5032489;28;20199;-50
2023/07/19 07:52:35;;;;;;;6.75;5.38;;;;;;;-144.30;23.92;79429.81;5032209;28;20588;-50
2023/07/19 07:55:04;;;;;;;7.13;5.70;;;;;;;-144.30;24.11;79425.88;5032591;28;20672;-50
2023/07/19 07:57:33;;;;;;;7.32;5.20;;;;;;;-144.30;24.03;79540.97;5032430;28;20196;-49
2023/07/19 08:00:02;;;;;;;5.93;4.95;;;;;;;-144.30;23.98;79419.91;5032358;28;20226;-49
2023/07/19 08:02:29;;;;;;;9.45;5.65;;;;;;;-144.30;24.02;79443.72;5032370;28;20209;-50
2023/07/19 08:04:56;;;;;;;11.05;5.50;;;;;;;-144.30;23.61;79076.59;5032606;28;20638;-50
2023/07/19 08:07:25;;;;;;;6.07;5.55;;;;;;;-144.30;23.28;78856.34;5031824;28;20235;-50
2023/07/19 08:09:52;;;;;;;5.88;5.30;;;;;;;-144.30;23.19;78757.16;5032248;28;20192;-49
2023/07/19 08:12:20;;;;;;;5.85;5.45;;;;;;;-144.30;23.11;78695.66;5032252;28;20632;-49
2023/07/19 08:14:47;;;;;;;6.15;5.53;;;;;;;-144.30;23.20;78743.25;5031752;28;20668;-52
2023/07/19 08:17:16;;;;;;;5.80;5.32;;;;;;;-144.30;23.23;78681.75;5032215;28;20200;-52
2023/07/19 08:19:43;;;;;;;5.28;4.78;;;;;;;-144.30;23.15;78810.72;5032345;28;20635;-49
2023/07/19 08:22:24;;;;;;;5.38;5.03;;;;;;;-144.30;23.36;78890.09;5031587;28;20295;-49
2023/07/19 08:24:51;;;;;;;5.82;5.15;;;;;;;-144.30;23.37;79011.13;5031958;28;20197;-50
2023/07/19 08:27:18;;;;;;;6.00;5.57;;;;;;;-144.30;23.50;79072.63;5031746;28;20196;-51
2023/07/19 08:29:45;;;;;;;6.65;5.13;;;;;;;-144.30;23.31;78822.63;5032086;28;20218;-50
2023/07/19 08:32:12;;;;;;;7.38;5.38;;;;;;;-144.30;23.77;78945.66;5032017;28;20640;-51
2023/07/19 08:34:41;;;;;;;5.95;5.47;;;;;;;-144.30;23.50;79114.31;5031833;28;20691;-50
2023/07/19 08:37:07;;;;;;;6.72;5.20;;;;;;;-144.30;23.70;79058.75;5031274;28;20670;-48
2023/07/19 08:39:34;;;;;;;5.95;5.30;;;;;;;-144.30;23.63;79021.03;5031697;28;20540;-51
2023/07/19 08:42:02;;;;;;;7.35;4.47;;;;;;;-144.30;23.82;79255.19;5031563;28;20196;-52
2023/07/19 08:44:30;;;;;;;5.75;4.97;;;;;;;-144.30;24.29;79513.19;5031910;28;20197;-50
2023/07/19 08:46:58;;;;;;;5.97;5.50;;;;;;;-144.30;24.62;79787.06;5031605;28;20208;-52
2023/07/19 08:49:25;;;;;;;5.82;5.43;;;;;;;-144.30;24.52;79937.91;5031436;28;20786;-52
2023/07/19 08:51:54;;;;;;;5.70;5.30;;;;;;;-144.30;24.88;80120.50;5031009;28;20216;-50
2023/07/19 08:54:21;;;;;;;6.20;5.70;;;;;;;-144.30;24.57;79959.72;5031177;28;20291;-52
2023/07/19 08:56:48;;;;;;;5.93;5.20;;;;;;;-144.30;24.98;79830.72;5031606;28;20215;-49
2023/07/19 08:59:15;;;;;;;5.72;5.22;;;;;;;-144.30;24.64;79832.72;5030946;28;20216;-50
2023/07/19 09:01:43;;;;;;;5.32;4.93;;;;;;;-144.30;24.59;79791.03;5031012;28;20207;-52
2023/07/19 09:04:10;;;;;;;6.03;5.22;;;;;;;-144.30;24.50;79858.50;5031070;28;20225;-51
2023/07/19 09:06:37;;;;;;;6.05;5.55;;;;;;;-144.30;24.60;79910.09;5030616;28;20208;-50
2023/07/19 09:09:05;;;;;;;5.95;5.43;;;;;;;-144.30;24.74;80049.03;5031056;28;20201;-49
2023/07/19 09:11:32;;;;;;;9.68;5.00;;;;;;;-144.30;25.30;80084.78;5031035;28;20197;-51
2023/07/19 09:13:59;;;;;;;6.95;6.30;;;;;;;-144.30;25.01;80015.31;5030878;28;20200;-50
2023/07/19 09:16:27;;;;;;;6.13;5.55;;;;;;;-144.30;25.12;80100.66;5030907;28;20683;-52
2023/07/19 09:18:54;;;;;;;5.35;4.93;;;;;;;-144.30;24.88;80033.16;5030826;28;20282;-49
2023/07/19 09:21:31;;;;;;;6.05;5.28;;;;;;;-144.30;25.44;80082.78;5030216;28;20193;-50
2023/07/19 09:23:59;;;;;;;9.23;5.45;;;;;;;-144.30;24.92;80058.97;5030910;28;20203;-53
2023/07/19 09:26:27;;;;;;;5.25;4.95;;;;;;;-144.30;24.87;80053.03;5030204;28;20559;-52
2023/07/19 09:28:54;;;;;;;8.10;5.60;;;;;;;-144.30;25.43;80005.38;5028212;28;20201;-52
2023/07/19 09:31:22;;;;;;;6.97;5.72;;;;;;;-144.30;24.69;80142.34;5013000;28;20696;-52
2023/07/19 09:33:49;;;;;;;6.75;5.20;;;;;;;-144.30;24.59;80053.03;5019666;28;20198;-52
2023/07/19 09:36:18;;;;;;;6.55;5.30;;;;;;;-144.30;24.73;80080.81;5018637;28;20239;-52
2023/07/19 09:38:45;;;;;;;5.95;5.30;;;;;;;-144.30;24.89;80045.09;5013563;28;20213;-52
2023/07/19 09:41:13;;;;;;;5.70;5.30;;;;;;;-144.30;25.06;80186.00;5010945;28;20209;-53
2023/07/19 09:43:43;;;;;;;5.50;4.95;;;;;;;-144.30;24.82;80170.13;5010917;28;20288;-52
2023/07/19 09:46:11;;;;;;;5.10;4.80;;;;;;;-144.30;24.67;80156.22;5016875;28;20203;-50
2023/07/19 09:48:38;;;;;;;9.13;5.00;;;;;;;-144.30;24.52;80189.97;5021975;28;20657;-50
2023/07/19 09:51:06;;;;;;;5.60;5.25;;;;;;;-144.30;24.62;80116.53;5021221;28;20258;-50
2023/07/19 09:53:38;;;;;;;5.70;5.30;;;;;;;-144.30;24.20;80080.81;5020223;28;20193;-49
2023/07/19 09:56:06;;;;;;;6.50;5.90;;;;;;;-144.30;24.78;79953.78;5019240;28;20189;-52
2023/07/19 09:58:34;;;;;;;5.57;5.15;;;;;;;-144.30;24.21;79864.47;5020107;28;20196;-51
2023/07/19 10:01:03;;;;;;;58.60;52.88;;;;;;;-144.30;24.45;79866.44;5023839;28;20207;-51
2023/07/19 10:03:29;;;;;;;28.85;25.08;;;;;;;-144.30;24.41;79824.78;5019409;28;20319;-51
2023/07/19 10:05:57;;;;;;;6.70;6.07;;;;;;;-144.30;24.28;79795.00;5019921;28;20688;-52
2023/07/19 10:08:24;;;;;;;7.45;5.13;;;;;;;-144.30;23.86;79894.22;5022656;28;20637;-52
2023/07/19 10:10:58;;;;;;;5.32;4.85;;;;;;;-144.30;23.50;80017.28;5021685;28;20591;-52
2023/07/19 10:13:29;;;;;;;5.15;4.65;;;;;;;-144.30;23.39;80338.84;5018672;28;20197;-52
2023/07/19 10:15:56;;;;;;;4.95;4.65;;;;;;;-144.30;23.44;80307.09;5019734;28;20192;-52
2023/07/19 10:18:27;;;;;;;4.57;3.70;;;;;;;-144.30;22.91;80241.59;5020586;28;20197;-52
2023/07/19 10:21:01;;;;;;;8.18;4.10;;;;;;;-144.30;22.60;80374.56;5019913;28;20625;-52
2023/07/19 10:23:30;;;;;;;4.90;4.60;;;;;;;-144.30;23.11;80438.09;5019000;28;20643;-52
2023/07/19 10:25:58;;;;;;;4.35;3.95;;;;;;;-144.30;23.40;80416.28;5019364;28;20673;-52
2023/07/19 10:28:30;;;;;;;4.43;4.20;;;;;;;-144.30;23.68;80471.84;5020591;28;20315;-52
2023/07/19 10:30:58;;;;;;;6.18;4.68;;;;;;;-144.30;23.94;80374.56;5020127;28;20661;-52
2023/07/19 10:33:27;;;;;;;5.82;5.10;;;;;;;-144.30;24.40;80461.94;5018537;28;20229;-52
2023/07/19 10:35:56;;;;;;;7.78;4.95;;;;;;;-144.30;24.52;80384.50;5019627;28;20224;-52
2023/07/19 10:38:24;;;;;;;5.45;5.13;;;;;;;-144.30;24.23;80450.00;5021616;28;20208;-52
2023/07/19 10:40:56;;;;;;;5.20;4.38;;;;;;;-144.30;24.44;80521.47;5023088;28;20772;-52
2023/07/19 10:43:24;;;;;;;8.45;5.80;;;;;;;-144.30;24.67;80509.56;5022471;28;20272;-49
2023/07/19 10:45:52;;;;;;;5.10;4.80;;;;;;;-144.30;24.33;80533.38;5024310;28;20656;-49
2023/07/19 10:48:19;;;;;;;5.93;4.93;;;;;;;-144.30;24.59;80608.81;5021904;28;20192;-50
2023/07/19 10:50:48;;;;;;;7.50;6.88;;;;;;;-144.30;24.35;80553.25;5024406;28;20185;-49
2023/07/19 10:53:15;;;;;;;8.85;8.23;;;;;;;-144.30;24.25;80565.16;5023381;28;20207;-50
2023/07/19 10:55:44;;;;;;;7.15;4.88;;;;;;;-144.30;24.13;80481.78;5022789;28;20216;-49
2023/07/19 10:58:12;;;;;;;7.15;5.10;;;;;;;-144.30;24.42;80499.63;5024405;28;20266;-52
2023/07/19 11:00:43;;;;;;;5.35;4.95;;;;;;;-144.30;24.37;80565.16;5023981;28;20213;-52
2023/07/19 11:03:13;;;;;;;20.85;6.63;;;;;;;-144.30;24.18;80533.38;5022650;28;20225;-52
2023/07/19 11:05:42;;;;;;;5.47;5.07;;;;;;;-144.30;24.40;80610.81;5022444;28;20587;-49
2023/07/19 11:08:10;;;;;;;4.97;4.45;;;;;;;-144.30;24.16;80690.22;5022252;28;20582;-52
2023/07/19 11:10:37;;;;;;;6.38;4.53;;;;;;;-144.30;24.44;80660.44;5022522;28;20654;-52
2023/07/19 11:13:04;;;;;;;4.90;4.50;;;;;;;-144.30;24.40;80777.56;5024114;28;20599;-52
2023/07/19 11:15:31;;;;;;;4.90;4.60;;;;;;;-144.30;24.40;80793.44;5022630;28;20212;-52